createdAt,value
2018-07-13T00:00:12.571Z,0.00
2018-07-13T00:01:18.963Z,0.00
2018-07-13T00:02:25.316Z,0.00
2018-07-13T00:03:31.683Z,0.00
2018-07-13T00:04:38.046Z,0.00
2018-07-13T00:05:44.424Z,0.00
2018-07-13T00:06:50.797Z,0.00
2018-07-13T00:07:57.152Z,0.00
2018-07-13T00:09:03.511Z,0.00
2018-07-13T00:10:09.879Z,0.00
2018-07-13T00:11:16.238Z,0.00
2018-07-13T00:12:22.601Z,0.00
2018-07-13T00:13:28.980Z,0.00
2018-07-13T00:14:35.330Z,0.00
2018-07-13T00:15:41.690Z,0.00
2018-07-13T00:16:48.049Z,0.00
2018-07-13T00:17:54.414Z,0.00
2018-07-13T00:19:00.771Z,0.00
2018-07-13T00:20:07.134Z,0.00
2018-07-13T00:21:13.491Z,0.00
2018-07-13T00:22:19.839Z,0.00
2018-07-13T00:23:26.194Z,0.00
2018-07-13T00:24:32.557Z,0.00
2018-07-13T00:25:38.928Z,0.00
2018-07-13T00:26:45.264Z,0.00
2018-07-13T00:27:51.621Z,0.00
2018-07-13T00:28:57.982Z,0.00
2018-07-13T00:30:04.342Z,0.00
2018-07-13T00:31:10.685Z,0.00
2018-07-13T00:32:17.039Z,0.00
2018-07-13T00:33:23.383Z,0.00
2018-07-13T00:34:29.754Z,0.00
2018-07-13T00:35:36.104Z,0.00
2018-07-13T00:36:42.448Z,0.00
2018-07-13T00:37:48.794Z,0.00
2018-07-13T00:38:55.139Z,0.00
2018-07-13T00:40:01.501Z,0.00
2018-07-13T00:41:07.854Z,0.00
2018-07-13T00:42:14.191Z,0.00
2018-07-13T00:43:20.549Z,0.00
2018-07-13T00:44:26.895Z,0.00
2018-07-13T00:45:33.248Z,0.00
2018-07-13T00:46:39.595Z,0.00
2018-07-13T00:47:45.943Z,0.00
2018-07-13T00:48:52.279Z,0.00
2018-07-13T00:49:58.625Z,0.00
2018-07-13T00:51:04.984Z,0.00
2018-07-13T00:52:11.322Z,0.00
2018-07-13T00:53:17.667Z,0.00
2018-07-13T00:54:24.007Z,0.00
2018-07-13T00:55:30.353Z,0.00
2018-07-13T00:56:36.677Z,0.00
2018-07-13T00:57:43.014Z,0.00
2018-07-13T00:58:49.364Z,0.00
2018-07-13T00:59:56.699Z,0.00
2018-07-13T01:01:02.047Z,0.00
2018-07-13T01:02:08.377Z,0.00
2018-07-13T01:03:14.717Z,0.00
2018-07-13T01:04:21.045Z,0.00
2018-07-13T01:05:27.401Z,0.00
2018-07-13T01:06:34.731Z,0.00
2018-07-13T01:07:40.065Z,0.00
2018-07-13T01:08:46.394Z,0.00
2018-07-13T01:09:52.731Z,0.00
2018-07-13T01:10:59.079Z,0.00
2018-07-13T01:12:05.406Z,0.00
2018-07-13T01:13:11.740Z,0.00
2018-07-13T01:14:18.069Z,0.00
2018-07-13T01:15:24.398Z,0.00
2018-07-13T01:16:30.742Z,0.00
2018-07-13T01:17:37.071Z,0.00
2018-07-13T01:18:43.391Z,0.00
2018-07-13T01:19:49.723Z,0.00
2018-07-13T01:20:56.063Z,0.00
2018-07-13T01:22:02.387Z,0.00
2018-07-13T01:23:08.713Z,0.00
2018-07-13T01:24:15.059Z,0.00
2018-07-13T01:25:21.388Z,0.00
2018-07-13T01:26:27.717Z,0.00
2018-07-13T01:27:34.041Z,0.00
2018-07-13T01:28:40.371Z,0.00
2018-07-13T01:29:46.692Z,0.00
2018-07-13T01:30:53.034Z,0.00
2018-07-13T01:31:59.348Z,0.00
2018-07-13T01:33:05.681Z,0.00
2018-07-13T01:34:12.012Z,0.00
2018-07-13T01:35:18.347Z,0.00
2018-07-13T01:36:24.680Z,0.00
2018-07-13T01:37:30.993Z,0.00
2018-07-13T01:38:37.318Z,0.00
2018-07-13T01:39:43.638Z,0.00
2018-07-13T01:40:49.973Z,0.00
2018-07-13T01:41:56.289Z,0.00
2018-07-13T01:43:02.605Z,0.00
2018-07-13T01:44:08.955Z,0.00
2018-07-13T01:45:15.257Z,0.00
2018-07-13T01:46:21.584Z,0.00
2018-07-13T01:47:27.923Z,0.00
2018-07-13T01:48:34.221Z,0.00
2018-07-13T01:49:40.559Z,0.00
2018-07-13T01:50:46.870Z,0.00
2018-07-13T01:51:53.185Z,0.00
2018-07-13T01:52:59.506Z,0.00
2018-07-13T01:54:05.908Z,0.00
2018-07-13T01:55:12.148Z,0.00
2018-07-13T01:56:18.469Z,0.00
2018-07-13T01:57:24.787Z,0.00
2018-07-13T01:58:31.109Z,0.00
2018-07-13T01:59:37.428Z,0.00
2018-07-13T02:00:43.744Z,0.00
2018-07-13T02:01:50.074Z,0.00
2018-07-13T02:02:56.378Z,0.00
2018-07-13T02:04:02.703Z,0.00
2018-07-13T02:05:09.018Z,0.00
2018-07-13T02:06:15.348Z,0.00
2018-07-13T02:07:21.670Z,0.00
2018-07-13T02:08:27.983Z,0.00
2018-07-13T02:09:34.312Z,0.00
2018-07-13T02:10:40.629Z,0.00
2018-07-13T02:11:46.949Z,0.00
2018-07-13T02:12:53.259Z,0.00
2018-07-13T02:13:59.580Z,0.00
2018-07-13T02:15:05.896Z,0.00
2018-07-13T02:16:12.217Z,0.00
2018-07-13T02:17:18.521Z,0.00
2018-07-13T02:18:24.842Z,0.00
2018-07-13T02:19:31.154Z,0.00
2018-07-13T02:20:37.466Z,0.00
2018-07-13T02:21:43.893Z,0.00
2018-07-13T02:22:50.100Z,0.00
2018-07-13T02:23:56.416Z,0.00
2018-07-13T02:25:02.737Z,0.00
2018-07-13T02:26:09.062Z,0.00
2018-07-13T02:27:15.385Z,0.00
2018-07-13T02:28:21.691Z,0.00
2018-07-13T02:29:28.011Z,0.00
2018-07-13T02:30:34.327Z,0.00
2018-07-13T02:31:40.650Z,0.00
2018-07-13T02:32:46.958Z,0.00
2018-07-13T02:33:53.312Z,0.00
2018-07-13T02:34:59.585Z,0.00
2018-07-13T02:36:05.927Z,0.00
2018-07-13T02:37:12.233Z,0.00
2018-07-13T02:38:18.531Z,0.00
2018-07-13T02:39:24.855Z,0.00
2018-07-13T02:40:31.169Z,0.00
2018-07-13T02:41:37.499Z,0.00
2018-07-13T02:42:43.807Z,0.00
2018-07-13T02:43:50.121Z,0.00
2018-07-13T02:44:56.426Z,0.00
2018-07-13T02:46:02.742Z,0.00
2018-07-13T02:47:09.075Z,0.00
2018-07-13T02:48:15.387Z,0.00
2018-07-13T02:49:21.697Z,0.00
2018-07-13T02:50:28.001Z,0.00
2018-07-13T02:51:34.328Z,0.00
2018-07-13T02:52:40.638Z,0.00
2018-07-13T02:53:46.970Z,0.00
2018-07-13T02:54:53.270Z,0.00
2018-07-13T02:55:59.589Z,0.00
2018-07-13T02:57:05.907Z,0.00
2018-07-13T02:58:12.221Z,0.00
2018-07-13T02:59:18.537Z,0.00
2018-07-13T03:00:24.847Z,0.00
2018-07-13T03:01:31.183Z,0.00
2018-07-13T03:02:37.480Z,0.00
2018-07-13T03:03:43.815Z,0.00
2018-07-13T03:04:50.116Z,0.00
2018-07-13T03:05:56.429Z,0.00
2018-07-13T03:07:02.762Z,0.00
2018-07-13T03:08:09.091Z,0.00
2018-07-13T03:09:15.390Z,0.00
2018-07-13T03:10:21.707Z,0.00
2018-07-13T03:11:28.029Z,0.00
2018-07-13T03:12:34.338Z,0.00
2018-07-13T03:13:40.671Z,0.00
2018-07-13T03:14:46.968Z,0.00
2018-07-13T03:15:53.286Z,0.00
2018-07-13T03:16:59.617Z,0.00
2018-07-13T03:18:05.922Z,0.00
2018-07-13T03:19:12.244Z,0.00
2018-07-13T03:20:18.552Z,0.00
2018-07-13T03:21:24.880Z,5.63
2018-07-13T03:22:31.190Z,5.63
2018-07-13T03:23:37.506Z,5.63
2018-07-13T03:24:43.902Z,5.63
2018-07-13T03:25:50.128Z,5.63
2018-07-13T03:26:56.462Z,5.63
2018-07-13T03:28:02.769Z,5.63
2018-07-13T03:29:09.078Z,5.63
2018-07-13T03:30:16.399Z,11.25
2018-07-13T03:31:21.710Z,11.25
2018-07-13T03:32:28.052Z,11.25
2018-07-13T03:33:34.351Z,11.25
2018-07-13T03:34:40.669Z,11.25
2018-07-13T03:35:46.975Z,11.25
2018-07-13T03:36:53.292Z,16.88
2018-07-13T03:37:59.607Z,16.88
2018-07-13T03:39:05.924Z,16.88
2018-07-13T03:40:12.233Z,16.88
2018-07-13T03:41:18.547Z,16.88
2018-07-13T03:42:24.862Z,22.50
2018-07-13T03:43:31.179Z,22.50
2018-07-13T03:44:37.492Z,22.50
2018-07-13T03:45:43.891Z,22.50
2018-07-13T03:46:50.117Z,28.13
2018-07-13T03:47:56.425Z,28.13
2018-07-13T03:49:02.755Z,28.13
2018-07-13T03:50:09.066Z,33.75
2018-07-13T03:51:15.373Z,33.75
2018-07-13T03:52:21.700Z,33.75
2018-07-13T03:53:28.010Z,39.38
2018-07-13T03:54:34.333Z,39.38
2018-07-13T03:55:40.638Z,45.00
2018-07-13T03:56:46.974Z,45.00
2018-07-13T03:57:53.274Z,50.63
2018-07-13T03:58:59.579Z,50.63
2018-07-13T04:00:05.902Z,50.63
2018-07-13T04:01:12.226Z,56.25
2018-07-13T04:02:18.541Z,56.25
2018-07-13T04:03:24.861Z,56.25
2018-07-13T04:04:31.180Z,61.88
2018-07-13T04:05:37.497Z,61.88
2018-07-13T04:06:43.907Z,61.88
2018-07-13T04:07:50.143Z,61.88
2018-07-13T04:08:56.453Z,67.50
2018-07-13T04:10:02.777Z,67.50
2018-07-13T04:11:09.110Z,67.50
2018-07-13T04:12:15.434Z,73.13
2018-07-13T04:13:21.765Z,73.13
2018-07-13T04:14:28.079Z,73.13
2018-07-13T04:15:34.398Z,73.13
2018-07-13T04:16:40.758Z,73.13
2018-07-13T04:17:47.062Z,78.75
2018-07-13T04:18:53.388Z,78.75
2018-07-13T04:19:59.708Z,78.75
2018-07-13T04:21:06.049Z,78.75
2018-07-13T04:22:12.376Z,78.75
2018-07-13T04:23:18.699Z,78.75
2018-07-13T04:24:25.035Z,78.75
2018-07-13T04:25:31.365Z,78.75
2018-07-13T04:26:37.689Z,78.75
2018-07-13T04:27:44.029Z,84.38
2018-07-13T04:28:50.492Z,84.38
2018-07-13T04:29:56.700Z,84.38
2018-07-13T04:31:03.209Z,84.38
2018-07-13T04:32:09.376Z,90.00
2018-07-13T04:33:15.716Z,95.63
2018-07-13T04:34:22.118Z,95.63
2018-07-13T04:35:28.377Z,101.25
2018-07-13T04:36:34.714Z,106.88
2018-07-13T04:37:41.060Z,106.88
2018-07-13T04:38:47.395Z,112.50
2018-07-13T04:39:53.722Z,112.50
2018-07-13T04:41:00.063Z,118.13
2018-07-13T04:42:06.417Z,123.75
2018-07-13T04:43:12.759Z,129.38
2018-07-13T04:44:19.092Z,140.63
2018-07-13T04:45:25.441Z,140.63
2018-07-13T04:46:31.794Z,146.25
2018-07-13T04:47:38.148Z,151.88
2018-07-13T04:48:44.498Z,151.88
2018-07-13T04:49:53.044Z,151.88
2018-07-13T04:50:57.206Z,157.50
2018-07-13T04:52:03.570Z,157.50
2018-07-13T04:53:09.919Z,157.50
2018-07-13T04:54:16.287Z,151.88
2018-07-13T04:55:22.639Z,151.88
2018-07-13T04:56:29.009Z,157.50
2018-07-13T04:57:35.388Z,157.50
2018-07-13T04:58:41.746Z,157.50
2018-07-13T04:59:48.105Z,157.50
2018-07-13T05:00:54.482Z,163.13
2018-07-13T05:02:00.851Z,157.50
2018-07-13T05:03:07.232Z,157.50
2018-07-13T05:04:13.592Z,157.50
2018-07-13T05:05:19.963Z,163.13
2018-07-13T05:06:26.343Z,157.50
2018-07-13T05:07:32.724Z,151.88
2018-07-13T05:08:39.104Z,146.25
2018-07-13T05:09:45.477Z,140.63
2018-07-13T05:10:51.866Z,140.63
2018-07-13T05:11:58.225Z,135.00
2018-07-13T05:13:04.622Z,129.38
2018-07-13T05:14:10.994Z,129.38
2018-07-13T05:15:17.370Z,129.38
2018-07-13T05:16:23.772Z,129.38
2018-07-13T05:17:30.254Z,129.38
2018-07-13T05:18:36.497Z,135.00
2018-07-13T05:19:42.881Z,135.00
2018-07-13T05:20:49.257Z,135.00
2018-07-13T05:21:55.635Z,140.63
2018-07-13T05:23:02.023Z,140.63
2018-07-13T05:24:08.402Z,146.25
2018-07-13T05:25:14.771Z,151.88
2018-07-13T05:26:21.158Z,151.88
2018-07-13T05:27:27.582Z,151.88
2018-07-13T05:28:33.906Z,157.50
2018-07-13T05:29:40.291Z,157.50
2018-07-13T05:30:46.686Z,157.50
2018-07-13T05:31:53.050Z,157.50
2018-07-13T05:32:59.441Z,163.13
2018-07-13T05:34:06.895Z,163.13
2018-07-13T05:35:12.208Z,168.75
2018-07-13T05:36:18.609Z,168.75
2018-07-13T05:37:25.003Z,168.75
2018-07-13T05:38:31.380Z,174.38
2018-07-13T05:39:37.761Z,174.38
2018-07-13T05:40:44.182Z,174.38
2018-07-13T05:41:50.539Z,174.38
2018-07-13T05:42:56.928Z,174.38
2018-07-13T05:44:03.317Z,168.75
2018-07-13T05:45:09.701Z,168.75
2018-07-13T05:46:16.096Z,168.75
2018-07-13T05:47:22.491Z,174.38
2018-07-13T05:48:28.892Z,174.38
2018-07-13T05:49:35.287Z,180.00
2018-07-13T05:50:41.659Z,185.63
2018-07-13T05:51:48.086Z,191.25
2018-07-13T05:52:54.459Z,191.25
2018-07-13T05:54:00.853Z,191.25
2018-07-13T05:55:07.249Z,191.25
2018-07-13T05:56:13.665Z,191.25
2018-07-13T05:57:20.049Z,191.25
2018-07-13T05:58:26.471Z,191.25
2018-07-13T05:59:32.861Z,191.25
2018-07-13T06:00:39.279Z,196.88
2018-07-13T06:01:45.694Z,202.50
2018-07-13T06:02:52.107Z,208.13
2018-07-13T06:03:58.597Z,213.75
2018-07-13T06:05:04.921Z,219.38
2018-07-13T06:06:11.364Z,225.00
2018-07-13T06:07:17.760Z,225.00
2018-07-13T06:08:24.183Z,225.00
2018-07-13T06:09:30.612Z,230.63
2018-07-13T06:10:37.031Z,236.25
2018-07-13T06:11:43.470Z,241.88
2018-07-13T06:12:49.916Z,253.13
2018-07-13T06:13:56.328Z,258.75
2018-07-13T06:15:02.830Z,258.75
2018-07-13T06:16:09.214Z,264.38
2018-07-13T06:17:15.656Z,264.38
2018-07-13T06:18:22.106Z,270.00
2018-07-13T06:19:28.551Z,281.25
2018-07-13T06:20:35.009Z,286.88
2018-07-13T06:21:41.449Z,286.88
2018-07-13T06:22:47.908Z,292.50
2018-07-13T06:23:54.367Z,298.13
2018-07-13T06:25:00.816Z,303.75
2018-07-13T06:26:07.281Z,303.75
2018-07-13T06:27:13.762Z,303.75
2018-07-13T06:28:20.239Z,309.38
2018-07-13T06:29:26.703Z,320.63
2018-07-13T06:30:33.201Z,331.88
2018-07-13T06:31:39.677Z,348.75
2018-07-13T06:32:46.168Z,360.00
2018-07-13T06:33:52.643Z,365.63
2018-07-13T06:34:59.135Z,371.25
2018-07-13T06:36:05.640Z,376.88
2018-07-13T06:37:12.154Z,382.50
2018-07-13T06:38:18.680Z,388.13
2018-07-13T06:39:25.199Z,388.13
2018-07-13T06:40:31.788Z,399.38
2018-07-13T06:41:38.277Z,399.38
2018-07-13T06:42:44.829Z,399.38
2018-07-13T06:43:51.690Z,399.38
2018-07-13T06:44:57.957Z,399.38
2018-07-13T06:46:04.521Z,388.13
2018-07-13T06:47:11.098Z,382.50
2018-07-13T06:48:17.686Z,371.25
2018-07-13T06:49:24.266Z,371.25
2018-07-13T06:50:30.877Z,365.63
2018-07-13T06:51:37.443Z,360.00
2018-07-13T06:52:44.042Z,354.38
2018-07-13T06:53:50.653Z,354.38
2018-07-13T06:54:57.247Z,348.75
2018-07-13T06:56:03.847Z,343.13
2018-07-13T06:57:10.454Z,343.13
2018-07-13T06:58:17.067Z,337.50
2018-07-13T06:59:23.659Z,343.13
2018-07-13T07:00:30.276Z,348.75
2018-07-13T07:01:36.881Z,348.75
2018-07-13T07:02:43.507Z,354.38
2018-07-13T07:03:50.121Z,360.00
2018-07-13T07:04:56.741Z,360.00
2018-07-13T07:06:03.370Z,337.50
2018-07-13T07:07:09.990Z,331.88
2018-07-13T07:08:16.621Z,315.00
2018-07-13T07:09:23.230Z,303.75
2018-07-13T07:10:29.866Z,303.75
2018-07-13T07:11:36.477Z,326.25
2018-07-13T07:12:43.109Z,320.63
2018-07-13T07:13:49.730Z,309.38
2018-07-13T07:14:56.345Z,303.75
2018-07-13T07:16:02.969Z,292.50
2018-07-13T07:17:09.607Z,275.63
2018-07-13T07:18:16.216Z,270.00
2018-07-13T07:19:22.860Z,264.38
2018-07-13T07:20:29.474Z,270.00
2018-07-13T07:21:36.107Z,264.38
2018-07-13T07:22:42.728Z,258.75
2018-07-13T07:23:49.370Z,258.75
2018-07-13T07:24:55.991Z,247.50
2018-07-13T07:26:02.617Z,253.13
2018-07-13T07:27:09.238Z,247.50
2018-07-13T07:28:15.874Z,247.50
2018-07-13T07:29:22.508Z,247.50
2018-07-13T07:30:29.124Z,247.50
2018-07-13T07:31:35.753Z,253.13
2018-07-13T07:32:42.383Z,253.13
2018-07-13T07:33:49.003Z,258.75
2018-07-13T07:34:55.627Z,264.38
2018-07-13T07:36:02.250Z,270.00
2018-07-13T07:37:08.860Z,270.00
2018-07-13T07:38:15.493Z,258.75
2018-07-13T07:39:22.108Z,264.38
2018-07-13T07:40:28.718Z,264.38
2018-07-13T07:41:35.347Z,270.00
2018-07-13T07:42:41.969Z,270.00
2018-07-13T07:43:48.646Z,270.00
2018-07-13T07:44:55.217Z,270.00
2018-07-13T07:46:01.853Z,264.38
2018-07-13T07:47:08.487Z,264.38
2018-07-13T07:48:15.100Z,264.38
2018-07-13T07:49:21.755Z,264.38
2018-07-13T07:50:28.396Z,264.38
2018-07-13T07:51:35.015Z,264.38
2018-07-13T07:52:41.645Z,270.00
2018-07-13T07:53:48.296Z,275.63
2018-07-13T07:54:54.925Z,275.63
2018-07-13T07:56:01.553Z,275.63
2018-07-13T07:57:08.197Z,270.00
2018-07-13T07:58:15.900Z,270.00
2018-07-13T07:59:21.490Z,270.00
2018-07-13T08:00:28.120Z,270.00
2018-07-13T08:01:34.765Z,270.00
2018-07-13T08:02:41.424Z,270.00
2018-07-13T08:03:48.064Z,270.00
2018-07-13T08:04:54.699Z,270.00
2018-07-13T08:06:01.370Z,270.00
2018-07-13T08:07:08.507Z,275.63
2018-07-13T08:08:14.707Z,275.63
2018-07-13T08:09:21.316Z,270.00
2018-07-13T08:10:27.970Z,270.00
2018-07-13T08:11:34.624Z,270.00
2018-07-13T08:12:41.282Z,275.63
2018-07-13T08:13:48.067Z,275.63
2018-07-13T08:14:54.615Z,281.25
2018-07-13T08:16:01.263Z,281.25
2018-07-13T08:17:07.933Z,275.63
2018-07-13T08:18:14.598Z,275.63
2018-07-13T08:19:21.280Z,275.63
2018-07-13T08:20:27.938Z,275.63
2018-07-13T08:21:34.604Z,281.25
2018-07-13T08:22:41.272Z,281.25
2018-07-13T08:23:47.951Z,275.63
2018-07-13T08:24:54.627Z,275.63
2018-07-13T08:26:01.293Z,270.00
2018-07-13T08:27:07.963Z,270.00
2018-07-13T08:28:14.637Z,275.63
2018-07-13T08:29:21.328Z,275.63
2018-07-13T08:30:28.005Z,281.25
2018-07-13T08:31:34.679Z,281.25
2018-07-13T08:32:41.370Z,275.63
2018-07-13T08:33:49.057Z,275.63
2018-07-13T08:34:54.742Z,281.25
2018-07-13T08:36:01.428Z,281.25
2018-07-13T08:37:08.111Z,286.88
2018-07-13T08:38:14.798Z,286.88
2018-07-13T08:39:21.517Z,281.25
2018-07-13T08:40:28.187Z,275.63
2018-07-13T08:41:34.890Z,275.63
2018-07-13T08:42:41.586Z,281.25
2018-07-13T08:43:48.288Z,292.50
2018-07-13T08:44:54.987Z,292.50
2018-07-13T08:46:01.684Z,286.88
2018-07-13T08:47:08.370Z,281.25
2018-07-13T08:48:15.074Z,281.25
2018-07-13T08:49:21.782Z,286.88
2018-07-13T08:50:28.580Z,292.50
2018-07-13T08:51:35.248Z,292.50
2018-07-13T08:52:41.890Z,292.50
2018-07-13T08:53:48.609Z,286.88
2018-07-13T08:54:55.320Z,292.50
2018-07-13T08:56:02.023Z,292.50
2018-07-13T08:57:08.739Z,298.13
2018-07-13T08:58:15.464Z,298.13
2018-07-13T08:59:22.187Z,298.13
2018-07-13T09:00:28.907Z,298.13
2018-07-13T09:01:35.664Z,298.13
2018-07-13T09:02:42.348Z,303.75
2018-07-13T09:03:49.087Z,309.38
2018-07-13T09:04:55.903Z,309.38
2018-07-13T09:06:02.555Z,315.00
2018-07-13T09:07:09.266Z,315.00
2018-07-13T09:08:16.005Z,315.00
2018-07-13T09:09:22.751Z,315.00
2018-07-13T09:10:29.476Z,320.63
2018-07-13T09:11:36.222Z,320.63
2018-07-13T09:12:42.964Z,326.25
2018-07-13T09:13:49.698Z,320.63
2018-07-13T09:14:56.457Z,315.00
2018-07-13T09:16:03.203Z,315.00
2018-07-13T09:17:09.960Z,315.00
2018-07-13T09:18:16.721Z,309.38
2018-07-13T09:19:23.463Z,309.38
2018-07-13T09:20:30.205Z,315.00
2018-07-13T09:21:36.970Z,320.63
2018-07-13T09:22:43.719Z,326.25
2018-07-13T09:23:50.479Z,326.25
2018-07-13T09:24:57.254Z,320.63
2018-07-13T09:26:04.015Z,326.25
2018-07-13T09:27:10.793Z,326.25
2018-07-13T09:28:17.551Z,326.25
2018-07-13T09:29:24.323Z,331.88
2018-07-13T09:30:31.085Z,337.50
2018-07-13T09:31:37.858Z,354.38
2018-07-13T09:32:44.642Z,371.25
2018-07-13T09:33:51.471Z,382.50
2018-07-13T09:34:59.215Z,382.50
2018-07-13T09:36:05.025Z,371.25
2018-07-13T09:37:11.908Z,365.63
2018-07-13T09:38:18.689Z,360.00
2018-07-13T09:39:25.450Z,343.13
2018-07-13T09:40:32.222Z,331.88
2018-07-13T09:41:39.049Z,331.88
2018-07-13T09:42:45.843Z,315.00
2018-07-13T09:43:52.654Z,303.75
2018-07-13T09:44:59.462Z,303.75
2018-07-13T09:46:06.256Z,303.75
2018-07-13T09:47:13.067Z,298.13
2018-07-13T09:48:19.863Z,286.88
2018-07-13T09:49:26.672Z,286.88
2018-07-13T09:50:33.496Z,281.25
2018-07-13T09:51:40.261Z,275.63
2018-07-13T09:52:47.063Z,275.63
2018-07-13T09:53:53.984Z,275.63
2018-07-13T09:55:00.668Z,275.63
2018-07-13T09:56:07.459Z,275.63
2018-07-13T09:57:14.307Z,275.63
2018-07-13T09:58:21.072Z,275.63
2018-07-13T09:59:27.877Z,281.25
2018-07-13T10:00:34.737Z,286.88
2018-07-13T10:01:41.469Z,281.25
2018-07-13T10:02:48.278Z,281.25
2018-07-13T10:03:55.068Z,281.25
2018-07-13T10:05:01.891Z,286.88
2018-07-13T10:06:08.673Z,292.50
2018-07-13T10:07:15.481Z,303.75
2018-07-13T10:08:22.284Z,309.38
2018-07-13T10:09:29.086Z,320.63
2018-07-13T10:10:35.899Z,348.75
2018-07-13T10:11:42.702Z,337.50
2018-07-13T10:12:49.502Z,337.50
2018-07-13T10:13:56.325Z,315.00
2018-07-13T10:15:03.145Z,309.38
2018-07-13T10:16:09.951Z,309.38
2018-07-13T10:17:16.770Z,315.00
2018-07-13T10:18:23.590Z,315.00
2018-07-13T10:19:30.412Z,309.38
2018-07-13T10:20:37.290Z,309.38
2018-07-13T10:21:44.065Z,315.00
2018-07-13T10:22:50.895Z,315.00
2018-07-13T10:23:57.721Z,315.00
2018-07-13T10:25:04.553Z,320.63
2018-07-13T10:26:11.377Z,326.25
2018-07-13T10:27:18.218Z,331.88
2018-07-13T10:28:25.039Z,331.88
2018-07-13T10:29:32.876Z,331.88
2018-07-13T10:30:38.729Z,331.88
2018-07-13T10:31:45.572Z,331.88
2018-07-13T10:32:52.419Z,337.50
2018-07-13T10:33:59.260Z,348.75
2018-07-13T10:35:06.120Z,348.75
2018-07-13T10:36:12.967Z,354.38
2018-07-13T10:37:19.910Z,348.75
2018-07-13T10:38:26.676Z,371.25
2018-07-13T10:39:33.531Z,371.25
2018-07-13T10:40:40.398Z,376.88
2018-07-13T10:41:47.248Z,360.00
2018-07-13T10:42:54.116Z,354.38
2018-07-13T10:44:00.980Z,360.00
2018-07-13T10:45:07.848Z,388.13
2018-07-13T10:46:14.704Z,410.63
2018-07-13T10:47:21.581Z,450.00
2018-07-13T10:48:28.449Z,478.13
2018-07-13T10:49:35.322Z,495.00
2018-07-13T10:50:42.205Z,500.63
2018-07-13T10:51:49.085Z,506.25
2018-07-13T10:52:55.980Z,511.88
2018-07-13T10:54:02.891Z,511.88
2018-07-13T10:55:09.903Z,466.88
2018-07-13T10:56:16.696Z,427.50
2018-07-13T10:57:23.600Z,410.63
2018-07-13T10:58:30.559Z,405.00
2018-07-13T10:59:37.403Z,405.00
2018-07-13T11:00:44.315Z,388.13
2018-07-13T11:01:51.212Z,360.00
2018-07-13T11:02:58.198Z,365.63
2018-07-13T11:04:04.991Z,360.00
2018-07-13T11:05:11.887Z,371.25
2018-07-13T11:06:18.765Z,388.13
2018-07-13T11:07:25.655Z,399.38
2018-07-13T11:08:32.550Z,405.00
2018-07-13T11:09:39.454Z,399.38
2018-07-13T11:10:46.386Z,405.00
2018-07-13T11:11:53.376Z,416.25
2018-07-13T11:13:00.466Z,427.50
2018-07-13T11:14:07.707Z,438.75
2018-07-13T11:15:14.856Z,450.00
2018-07-13T11:16:22.156Z,466.88
2018-07-13T11:17:29.512Z,506.25
2018-07-13T11:18:36.938Z,1080.00
2018-07-13T11:19:44.406Z,2683.13
2018-07-13T11:20:51.926Z,3110.63
2018-07-13T11:21:59.482Z,3065.63
2018-07-13T11:23:07.075Z,3082.50
2018-07-13T11:24:14.736Z,3150.00
2018-07-13T11:25:22.409Z,3144.38
2018-07-13T11:26:30.116Z,3116.25
2018-07-13T11:27:37.868Z,2610.00
2018-07-13T11:28:45.612Z,3150.00
2018-07-13T11:29:53.343Z,2047.50
2018-07-13T11:31:02.087Z,3054.38
2018-07-13T11:32:08.833Z,3043.13
2018-07-13T11:33:16.611Z,3138.75
2018-07-13T11:34:24.412Z,590.63
2018-07-13T11:35:32.094Z,540.00
2018-07-13T11:36:39.688Z,534.38
2018-07-13T11:37:47.175Z,517.50
2018-07-13T11:38:54.608Z,990.00
2018-07-13T11:40:02.047Z,3262.50
2018-07-13T11:41:09.575Z,3262.50
2018-07-13T11:42:17.184Z,3397.50
2018-07-13T11:43:24.892Z,3515.63
2018-07-13T11:44:32.662Z,3363.75
2018-07-13T11:45:40.512Z,3369.38
2018-07-13T11:46:48.383Z,3481.88
2018-07-13T11:47:56.310Z,3436.88
2018-07-13T11:49:04.258Z,3279.38
2018-07-13T11:50:13.243Z,3313.13
2018-07-13T11:51:20.276Z,3380.63
2018-07-13T11:52:28.326Z,3459.38
2018-07-13T11:53:36.423Z,3358.13
2018-07-13T11:54:44.543Z,1338.75
2018-07-13T11:55:52.610Z,3240.00
2018-07-13T11:57:00.654Z,3296.25
2018-07-13T11:58:08.763Z,3279.38
2018-07-13T11:59:16.886Z,3009.38
2018-07-13T12:00:25.023Z,2745.00
2018-07-13T12:01:33.118Z,832.50
2018-07-13T12:02:41.137Z,838.13
2018-07-13T12:03:49.065Z,686.25
2018-07-13T12:04:56.895Z,663.75
2018-07-13T12:06:04.631Z,978.75
2018-07-13T12:07:12.282Z,618.75
2018-07-13T12:08:19.884Z,540.00
2018-07-13T12:09:27.424Z,478.13
2018-07-13T12:10:34.908Z,601.88
2018-07-13T12:11:42.353Z,489.38
2018-07-13T12:12:50.366Z,551.25
2018-07-13T12:13:57.113Z,585.00
2018-07-13T12:15:04.491Z,618.75
2018-07-13T12:16:11.907Z,2998.13
2018-07-13T12:17:19.215Z,855.00
2018-07-13T12:18:26.705Z,1901.25
2018-07-13T12:19:34.129Z,3076.88
2018-07-13T12:20:41.720Z,3172.50
2018-07-13T12:21:49.433Z,2812.50
2018-07-13T12:22:57.178Z,2874.38
2018-07-13T12:24:05.026Z,2863.13
2018-07-13T12:25:12.936Z,2075.63
2018-07-13T12:26:21.904Z,838.13
2018-07-13T12:27:28.625Z,2694.38
2018-07-13T12:28:36.427Z,1968.75
2018-07-13T12:29:44.275Z,1350.00
2018-07-13T12:30:52.068Z,1946.25
2018-07-13T12:31:59.852Z,2351.25
2018-07-13T12:33:07.686Z,2745.00
2018-07-13T12:34:15.583Z,2722.50
2018-07-13T12:35:23.552Z,2666.25
2018-07-13T12:36:31.573Z,2621.25
2018-07-13T12:37:39.648Z,2576.25
2018-07-13T12:38:47.760Z,2486.25
2018-07-13T12:39:55.955Z,2373.75
2018-07-13T12:41:04.103Z,2334.38
2018-07-13T12:42:12.345Z,2075.63
2018-07-13T12:43:20.376Z,950.63
2018-07-13T12:44:28.407Z,973.13
2018-07-13T12:45:36.367Z,1614.38
2018-07-13T12:46:44.283Z,933.75
2018-07-13T12:47:52.148Z,916.88
2018-07-13T12:48:59.983Z,781.88
2018-07-13T12:50:07.706Z,731.25
2018-07-13T12:51:15.396Z,708.75
2018-07-13T12:52:23.014Z,703.13
2018-07-13T12:53:30.616Z,708.75
2018-07-13T12:54:38.233Z,731.25
2018-07-13T12:55:45.654Z,753.75
2018-07-13T12:56:53.170Z,776.25
2018-07-13T12:58:00.612Z,742.50
2018-07-13T12:59:08.076Z,663.75
2018-07-13T13:00:15.424Z,573.75
2018-07-13T13:01:22.797Z,523.13
2018-07-13T13:02:30.243Z,495.00
2018-07-13T13:03:37.407Z,466.88
2018-07-13T13:04:44.658Z,461.25
2018-07-13T13:05:51.883Z,466.88
2018-07-13T13:06:59.094Z,483.75
2018-07-13T13:08:06.261Z,517.50
2018-07-13T13:09:13.436Z,551.25
2018-07-13T13:10:20.564Z,579.38
2018-07-13T13:11:27.710Z,601.88
2018-07-13T13:12:34.811Z,596.25
2018-07-13T13:13:41.930Z,601.88
2018-07-13T13:14:49.032Z,596.25
2018-07-13T13:15:56.130Z,596.25
2018-07-13T13:17:03.210Z,618.75
2018-07-13T13:18:10.279Z,652.50
2018-07-13T13:19:17.355Z,663.75
2018-07-13T13:20:24.426Z,658.13
2018-07-13T13:21:31.532Z,697.50
2018-07-13T13:22:38.569Z,1929.38
2018-07-13T13:23:45.693Z,2070.00
2018-07-13T13:24:52.876Z,2086.88
2018-07-13T13:26:00.132Z,2115.00
2018-07-13T13:27:07.462Z,2047.50
2018-07-13T13:28:14.836Z,984.38
2018-07-13T13:29:22.276Z,1721.25
2018-07-13T13:30:29.624Z,978.75
2018-07-13T13:31:37.022Z,1980.00
2018-07-13T13:32:44.476Z,2008.13
2018-07-13T13:33:51.932Z,1991.25
2018-07-13T13:34:59.412Z,703.13
2018-07-13T13:36:06.887Z,1991.25
2018-07-13T13:37:15.375Z,2064.38
2018-07-13T13:38:21.855Z,765.00
2018-07-13T13:39:29.349Z,703.13
2018-07-13T13:40:36.794Z,714.38
2018-07-13T13:41:44.205Z,680.63
2018-07-13T13:42:51.556Z,658.13
2018-07-13T13:43:58.874Z,641.25
2018-07-13T13:45:06.162Z,646.88
2018-07-13T13:46:13.407Z,680.63
2018-07-13T13:47:20.650Z,1265.63
2018-07-13T13:48:27.877Z,2030.63
2018-07-13T13:49:35.174Z,2176.88
2018-07-13T13:50:42.534Z,2154.38
2018-07-13T13:51:49.939Z,922.50
2018-07-13T13:52:57.341Z,1136.25
2018-07-13T13:54:04.740Z,793.13
2018-07-13T13:55:12.109Z,652.50
2018-07-13T13:56:19.444Z,573.75
2018-07-13T13:57:26.735Z,556.88
2018-07-13T13:58:34.014Z,585.00
2018-07-13T13:59:41.272Z,630.00
2018-07-13T14:00:48.505Z,675.00
2018-07-13T14:01:55.719Z,703.13
2018-07-13T14:03:02.896Z,658.13
2018-07-13T14:04:10.073Z,613.13